sensor_id;sensor_type;location;lat;lon;timestamp;P1;durP1;ratioP1;P2;durP2;ratioP2
12385;SDS011;6257;57.634;18.310;2023-02-15T00:02:01;20.03;;;10.47;;
12385;SDS011;6257;57.634;18.310;2023-02-15T00:04:28;18.50;;;10.43;;
12385;SDS011;6257;57.634;18.310;2023-02-15T00:07:11;16.33;;;8.93;;
12385;SDS011;6257;57.634;18.310;2023-02-15T00:09:39;19.30;;;10.43;;
12385;SDS011;6257;57.634;18.310;2023-02-15T00:12:06;16.87;;;9.50;;
12385;SDS011;6257;57.634;18.310;2023-02-15T00:14:34;19.23;;;10.10;;
12385;SDS011;6257;57.634;18.310;2023-02-15T00:17:02;18.00;;;9.90;;
12385;SDS011;6257;57.634;18.310;2023-02-15T00:19:30;15.90;;;10.17;;
12385;SDS011;6257;57.634;18.310;2023-02-15T00:21:57;17.00;;;9.97;;
12385;SDS011;6257;57.634;18.310;2023-02-15T00:24:24;18.30;;;10.13;;
12385;SDS011;6257;57.634;18.310;2023-02-15T00:26:51;17.00;;;10.00;;
12385;SDS011;6257;57.634;18.310;2023-02-15T00:29:18;17.33;;;10.17;;
12385;SDS011;6257;57.634;18.310;2023-02-15T00:31:45;15.77;;;9.63;;
12385;SDS011;6257;57.634;18.310;2023-02-15T00:34:15;18.27;;;9.47;;
12385;SDS011;6257;57.634;18.310;2023-02-15T00:36:43;12.93;;;8.00;;
12385;SDS011;6257;57.634;18.310;2023-02-15T00:39:10;13.50;;;8.53;;
12385;SDS011;6257;57.634;18.310;2023-02-15T00:41:38;15.37;;;8.77;;
12385;SDS011;6257;57.634;18.310;2023-02-15T00:44:05;13.27;;;8.53;;
12385;SDS011;6257;57.634;18.310;2023-02-15T00:46:33;12.73;;;8.60;;
12385;SDS011;6257;57.634;18.310;2023-02-15T00:49:00;12.90;;;8.27;;
12385;SDS011;6257;57.634;18.310;2023-02-15T00:51:29;11.67;;;7.80;;
12385;SDS011;6257;57.634;18.310;2023-02-15T00:53:56;12.50;;;8.57;;
12385;SDS011;6257;57.634;18.310;2023-02-15T00:56:22;14.50;;;8.53;;
12385;SDS011;6257;57.634;18.310;2023-02-15T00:58:49;15.00;;;9.67;;
12385;SDS011;6257;57.634;18.310;2023-02-15T01:01:17;11.87;;;7.97;;
12385;SDS011;6257;57.634;18.310;2023-02-15T01:03:45;12.43;;;8.17;;
12385;SDS011;6257;57.634;18.310;2023-02-15T01:06:13;10.77;;;7.60;;
12385;SDS011;6257;57.634;18.310;2023-02-15T01:08:42;13.20;;;8.40;;
12385;SDS011;6257;57.634;18.310;2023-02-15T01:11:10;13.83;;;8.43;;
12385;SDS011;6257;57.634;18.310;2023-02-15T01:13:38;12.20;;;7.80;;
12385;SDS011;6257;57.634;18.310;2023-02-15T01:16:06;12.63;;;8.50;;
12385;SDS011;6257;57.634;18.310;2023-02-15T01:18:34;10.73;;;7.53;;
12385;SDS011;6257;57.634;18.310;2023-02-15T01:21:08;8.27;;;6.60;;
12385;SDS011;6257;57.634;18.310;2023-02-15T01:23:36;8.67;;;6.57;;
12385;SDS011;6257;57.634;18.310;2023-02-15T01:26:04;9.53;;;6.43;;
12385;SDS011;6257;57.634;18.310;2023-02-15T01:28:32;10.00;;;6.90;;
12385;SDS011;6257;57.634;18.310;2023-02-15T01:30:59;9.33;;;7.50;;
12385;SDS011;6257;57.634;18.310;2023-02-15T01:33:30;10.93;;;7.43;;
12385;SDS011;6257;57.634;18.310;2023-02-15T01:35:58;10.60;;;7.73;;
12385;SDS011;6257;57.634;18.310;2023-02-15T01:38:25;11.67;;;7.30;;
12385;SDS011;6257;57.634;18.310;2023-02-15T01:40:52;10.37;;;6.37;;
12385;SDS011;6257;57.634;18.310;2023-02-15T01:43:42;7.83;;;6.60;;
12385;SDS011;6257;57.634;18.310;2023-02-15T01:46:10;11.80;;;6.87;;
12385;SDS011;6257;57.634;18.310;2023-02-15T01:48:39;9.90;;;7.23;;
12385;SDS011;6257;57.634;18.310;2023-02-15T01:51:13;9.70;;;6.90;;
12385;SDS011;6257;57.634;18.310;2023-02-15T01:53:45;10.20;;;7.03;;
12385;SDS011;6257;57.634;18.310;2023-02-15T01:56:17;8.10;;;6.70;;
12385;SDS011;6257;57.634;18.310;2023-02-15T01:58:49;9.67;;;6.60;;
12385;SDS011;6257;57.634;18.310;2023-02-15T02:01:20;11.60;;;6.50;;
12385;SDS011;6257;57.634;18.310;2023-02-15T02:03:49;9.93;;;6.93;;
12385;SDS011;6257;57.634;18.310;2023-02-15T02:06:24;8.53;;;6.60;;
12385;SDS011;6257;57.634;18.310;2023-02-15T02:08:52;9.63;;;6.97;;
12385;SDS011;6257;57.634;18.310;2023-02-15T02:11:20;8.70;;;6.33;;
12385;SDS011;6257;57.634;18.310;2023-02-15T02:13:48;8.57;;;6.13;;
12385;SDS011;6257;57.634;18.310;2023-02-15T02:16:20;9.23;;;6.17;;
12385;SDS011;6257;57.634;18.310;2023-02-15T02:18:58;7.63;;;6.07;;
12385;SDS011;6257;57.634;18.310;2023-02-15T02:27:55;8.27;;;5.83;;
12385;SDS011;6257;57.634;18.310;2023-02-15T02:33:24;10.10;;;6.23;;
12385;SDS011;6257;57.634;18.310;2023-02-15T02:36:14;8.23;;;6.20;;
12385;SDS011;6257;57.634;18.310;2023-02-15T02:38:47;8.10;;;6.23;;
12385;SDS011;6257;57.634;18.310;2023-02-15T02:41:23;9.87;;;6.17;;
12385;SDS011;6257;57.634;18.310;2023-02-15T02:43:58;8.13;;;6.13;;
12385;SDS011;6257;57.634;18.310;2023-02-15T02:46:30;10.53;;;6.60;;
12385;SDS011;6257;57.634;18.310;2023-02-15T02:49:02;8.73;;;6.87;;
12385;SDS011;6257;57.634;18.310;2023-02-15T02:51:29;10.73;;;6.50;;
12385;SDS011;6257;57.634;18.310;2023-02-15T02:53:57;10.17;;;6.87;;
12385;SDS011;6257;57.634;18.310;2023-02-15T02:56:31;11.47;;;7.27;;
12385;SDS011;6257;57.634;18.310;2023-02-15T02:59:04;10.20;;;6.97;;
12385;SDS011;6257;57.634;18.310;2023-02-15T03:01:38;9.83;;;7.40;;
12385;SDS011;6257;57.634;18.310;2023-02-15T03:04:10;10.83;;;6.77;;
12385;SDS011;6257;57.634;18.310;2023-02-15T03:06:39;13.37;;;7.20;;
12385;SDS011;6257;57.634;18.310;2023-02-15T03:09:14;11.63;;;7.13;;
12385;SDS011;6257;57.634;18.310;2023-02-15T03:11:47;10.47;;;7.07;;
12385;SDS011;6257;57.634;18.310;2023-02-15T03:14:14;10.33;;;7.83;;
12385;SDS011;6257;57.634;18.310;2023-02-15T03:16:45;13.73;;;8.13;;
12385;SDS011;6257;57.634;18.310;2023-02-15T03:19:17;12.00;;;7.97;;
12385;SDS011;6257;57.634;18.310;2023-02-15T03:21:50;12.60;;;8.67;;
12385;SDS011;6257;57.634;18.310;2023-02-15T03:24:29;14.40;;;8.80;;
12385;SDS011;6257;57.634;18.310;2023-02-15T03:27:00;11.13;;;7.77;;
12385;SDS011;6257;57.634;18.310;2023-02-15T03:29:30;14.57;;;8.97;;
12385;SDS011;6257;57.634;18.310;2023-02-15T03:32:00;13.57;;;9.00;;
12385;SDS011;6257;57.634;18.310;2023-02-15T03:34:31;12.17;;;8.27;;
12385;SDS011;6257;57.634;18.310;2023-02-15T03:36:59;14.97;;;9.40;;
12385;SDS011;6257;57.634;18.310;2023-02-15T03:39:32;13.63;;;8.70;;
12385;SDS011;6257;57.634;18.310;2023-02-15T03:42:04;11.10;;;8.13;;
12385;SDS011;6257;57.634;18.310;2023-02-15T03:44:37;10.77;;;7.77;;
12385;SDS011;6257;57.634;18.310;2023-02-15T03:47:13;13.87;;;8.47;;
12385;SDS011;6257;57.634;18.310;2023-02-15T03:49:48;14.33;;;8.37;;
12385;SDS011;6257;57.634;18.310;2023-02-15T03:52:19;13.27;;;8.50;;
12385;SDS011;6257;57.634;18.310;2023-02-15T03:54:49;13.87;;;8.37;;
12385;SDS011;6257;57.634;18.310;2023-02-15T03:57:18;15.20;;;8.37;;
12385;SDS011;6257;57.634;18.310;2023-02-15T04:00:04;14.90;;;8.87;;
12385;SDS011;6257;57.634;18.310;2023-02-15T04:05:40;12.87;;;8.77;;
12385;SDS011;6257;57.634;18.310;2023-02-15T04:08:09;13.30;;;8.20;;
12385;SDS011;6257;57.634;18.310;2023-02-15T04:10:36;14.53;;;8.50;;
12385;SDS011;6257;57.634;18.310;2023-02-15T04:13:18;14.57;;;8.57;;
12385;SDS011;6257;57.634;18.310;2023-02-15T04:15:45;13.20;;;7.87;;
12385;SDS011;6257;57.634;18.310;2023-02-15T04:18:29;12.23;;;7.20;;
12385;SDS011;6257;57.634;18.310;2023-02-15T04:21:16;14.67;;;8.63;;
12385;SDS011;6257;57.634;18.310;2023-02-15T04:24:00;11.87;;;8.07;;
12385;SDS011;6257;57.634;18.310;2023-02-15T04:26:44;11.40;;;7.23;;
12385;SDS011;6257;57.634;18.310;2023-02-15T04:29:12;11.53;;;7.30;;
12385;SDS011;6257;57.634;18.310;2023-02-15T04:31:40;12.83;;;7.90;;
12385;SDS011;6257;57.634;18.310;2023-02-15T04:34:08;13.27;;;7.33;;
12385;SDS011;6257;57.634;18.310;2023-02-15T04:36:37;11.83;;;7.40;;
12385;SDS011;6257;57.634;18.310;2023-02-15T04:39:04;11.73;;;7.33;;
12385;SDS011;6257;57.634;18.310;2023-02-15T04:41:32;10.50;;;7.33;;
12385;SDS011;6257;57.634;18.310;2023-02-15T04:43:59;13.70;;;7.70;;
12385;SDS011;6257;57.634;18.310;2023-02-15T04:46:26;11.97;;;7.23;;
12385;SDS011;6257;57.634;18.310;2023-02-15T04:48:54;13.40;;;7.87;;
12385;SDS011;6257;57.634;18.310;2023-02-15T04:51:21;11.17;;;7.17;;
12385;SDS011;6257;57.634;18.310;2023-02-15T04:53:50;13.17;;;7.80;;
12385;SDS011;6257;57.634;18.310;2023-02-15T04:56:17;12.87;;;7.57;;
12385;SDS011;6257;57.634;18.310;2023-02-15T04:58:44;13.87;;;7.97;;
12385;SDS011;6257;57.634;18.310;2023-02-15T05:01:12;13.37;;;8.10;;
12385;SDS011;6257;57.634;18.310;2023-02-15T05:03:39;11.47;;;7.67;;
12385;SDS011;6257;57.634;18.310;2023-02-15T05:06:06;10.87;;;7.27;;
12385;SDS011;6257;57.634;18.310;2023-02-15T05:08:33;12.87;;;7.83;;
12385;SDS011;6257;57.634;18.310;2023-02-15T05:11:02;14.03;;;7.97;;
12385;SDS011;6257;57.634;18.310;2023-02-15T05:13:29;12.30;;;7.87;;
12385;SDS011;6257;57.634;18.310;2023-02-15T05:15:56;12.90;;;7.50;;
12385;SDS011;6257;57.634;18.310;2023-02-15T05:18:23;13.20;;;8.10;;
12385;SDS011;6257;57.634;18.310;2023-02-15T05:20:50;12.70;;;8.37;;
12385;SDS011;6257;57.634;18.310;2023-02-15T05:23:17;13.97;;;7.63;;
12385;SDS011;6257;57.634;18.310;2023-02-15T05:25:46;13.13;;;7.70;;
12385;SDS011;6257;57.634;18.310;2023-02-15T05:28:33;14.53;;;8.00;;
12385;SDS011;6257;57.634;18.310;2023-02-15T05:31:02;12.33;;;8.17;;
12385;SDS011;6257;57.634;18.310;2023-02-15T05:33:31;14.13;;;7.77;;
12385;SDS011;6257;57.634;18.310;2023-02-15T05:35:58;12.20;;;7.67;;
12385;SDS011;6257;57.634;18.310;2023-02-15T05:38:25;12.37;;;7.57;;
12385;SDS011;6257;57.634;18.310;2023-02-15T05:40:52;12.23;;;7.90;;
12385;SDS011;6257;57.634;18.310;2023-02-15T05:43:19;11.53;;;7.47;;
12385;SDS011;6257;57.634;18.310;2023-02-15T05:45:49;10.67;;;7.37;;
12385;SDS011;6257;57.634;18.310;2023-02-15T05:48:17;11.30;;;7.67;;
12385;SDS011;6257;57.634;18.310;2023-02-15T05:50:45;14.37;;;7.53;;
12385;SDS011;6257;57.634;18.310;2023-02-15T05:53:13;11.70;;;7.70;;
12385;SDS011;6257;57.634;18.310;2023-02-15T05:55:40;13.03;;;8.17;;
12385;SDS011;6257;57.634;18.310;2023-02-15T05:58:07;14.23;;;7.80;;
12385;SDS011;6257;57.634;18.310;2023-02-15T06:00:34;11.70;;;7.60;;
12385;SDS011;6257;57.634;18.310;2023-02-15T06:03:02;12.57;;;7.93;;
12385;SDS011;6257;57.634;18.310;2023-02-15T06:05:29;12.50;;;7.90;;
12385;SDS011;6257;57.634;18.310;2023-02-15T06:07:56;10.67;;;7.93;;
12385;SDS011;6257;57.634;18.310;2023-02-15T06:10:23;13.40;;;8.50;;
12385;SDS011;6257;57.634;18.310;2023-02-15T06:12:51;11.60;;;7.40;;
12385;SDS011;6257;57.634;18.310;2023-02-15T06:15:18;13.83;;;8.13;;
12385;SDS011;6257;57.634;18.310;2023-02-15T06:17:45;13.20;;;8.27;;
12385;SDS011;6257;57.634;18.310;2023-02-15T06:20:13;14.13;;;7.80;;
12385;SDS011;6257;57.634;18.310;2023-02-15T06:22:40;12.33;;;7.57;;
12385;SDS011;6257;57.634;18.310;2023-02-15T06:25:08;12.50;;;7.67;;
12385;SDS011;6257;57.634;18.310;2023-02-15T06:27:36;12.47;;;7.93;;
12385;SDS011;6257;57.634;18.310;2023-02-15T06:30:04;12.83;;;7.63;;
12385;SDS011;6257;57.634;18.310;2023-02-15T06:32:33;16.60;;;9.03;;
12385;SDS011;6257;57.634;18.310;2023-02-15T06:35:00;15.60;;;8.67;;
12385;SDS011;6257;57.634;18.310;2023-02-15T06:37:28;16.70;;;9.20;;
12385;SDS011;6257;57.634;18.310;2023-02-15T06:39:56;12.43;;;7.90;;
12385;SDS011;6257;57.634;18.310;2023-02-15T06:42:23;15.43;;;9.30;;
12385;SDS011;6257;57.634;18.310;2023-02-15T06:44:50;15.50;;;9.10;;
12385;SDS011;6257;57.634;18.310;2023-02-15T06:47:17;13.83;;;8.30;;
12385;SDS011;6257;57.634;18.310;2023-02-15T06:49:44;11.60;;;8.27;;
12385;SDS011;6257;57.634;18.310;2023-02-15T06:52:11;13.47;;;8.17;;
12385;SDS011;6257;57.634;18.310;2023-02-15T06:54:40;12.23;;;7.93;;
12385;SDS011;6257;57.634;18.310;2023-02-15T06:57:07;13.87;;;8.07;;
12385;SDS011;6257;57.634;18.310;2023-02-15T06:59:35;14.73;;;8.33;;
12385;SDS011;6257;57.634;18.310;2023-02-15T07:02:02;13.63;;;8.33;;
12385;SDS011;6257;57.634;18.310;2023-02-15T07:04:29;13.37;;;8.00;;
12385;SDS011;6257;57.634;18.310;2023-02-15T07:06:56;13.13;;;7.70;;
12385;SDS011;6257;57.634;18.310;2023-02-15T07:09:23;15.63;;;8.30;;
12385;SDS011;6257;57.634;18.310;2023-02-15T07:11:52;14.23;;;8.20;;
12385;SDS011;6257;57.634;18.310;2023-02-15T07:14:33;14.27;;;7.63;;
12385;SDS011;6257;57.634;18.310;2023-02-15T07:17:00;15.53;;;8.13;;
12385;SDS011;6257;57.634;18.310;2023-02-15T07:19:27;12.53;;;8.23;;
12385;SDS011;6257;57.634;18.310;2023-02-15T07:21:54;11.70;;;8.07;;
12385;SDS011;6257;57.634;18.310;2023-02-15T07:24:21;12.77;;;8.43;;
12385;SDS011;6257;57.634;18.310;2023-02-15T07:26:48;12.07;;;8.13;;
12385;SDS011;6257;57.634;18.310;2023-02-15T07:29:17;15.37;;;8.13;;
12385;SDS011;6257;57.634;18.310;2023-02-15T07:31:44;13.07;;;8.10;;
12385;SDS011;6257;57.634;18.310;2023-02-15T07:34:11;12.00;;;8.13;;
12385;SDS011;6257;57.634;18.310;2023-02-15T07:36:38;17.00;;;8.90;;
12385;SDS011;6257;57.634;18.310;2023-02-15T07:39:05;12.17;;;7.93;;
12385;SDS011;6257;57.634;18.310;2023-02-15T07:41:32;14.13;;;8.67;;
12385;SDS011;6257;57.634;18.310;2023-02-15T07:43:59;12.73;;;7.97;;
12385;SDS011;6257;57.634;18.310;2023-02-15T07:46:28;12.20;;;8.00;;
12385;SDS011;6257;57.634;18.310;2023-02-15T07:48:55;14.03;;;8.23;;
12385;SDS011;6257;57.634;18.310;2023-02-15T07:51:22;12.30;;;8.13;;
12385;SDS011;6257;57.634;18.310;2023-02-15T07:53:49;12.63;;;7.80;;
12385;SDS011;6257;57.634;18.310;2023-02-15T07:56:17;11.33;;;8.23;;
12385;SDS011;6257;57.634;18.310;2023-02-15T07:58:44;12.70;;;8.43;;
12385;SDS011;6257;57.634;18.310;2023-02-15T08:01:17;13.07;;;7.97;;
12385;SDS011;6257;57.634;18.310;2023-02-15T08:03:47;12.03;;;7.97;;
12385;SDS011;6257;57.634;18.310;2023-02-15T08:06:14;13.57;;;8.53;;
12385;SDS011;6257;57.634;18.310;2023-02-15T08:08:41;13.60;;;8.07;;
12385;SDS011;6257;57.634;18.310;2023-02-15T08:11:13;12.70;;;8.20;;
12385;SDS011;6257;57.634;18.310;2023-02-15T08:14:08;15.70;;;8.33;;
12385;SDS011;6257;57.634;18.310;2023-02-15T08:16:37;14.50;;;10.03;;
12385;SDS011;6257;57.634;18.310;2023-02-15T08:19:07;14.20;;;10.03;;
12385;SDS011;6257;57.634;18.310;2023-02-15T08:21:35;15.57;;;9.63;;
12385;SDS011;6257;57.634;18.310;2023-02-15T08:24:04;14.23;;;9.10;;
12385;SDS011;6257;57.634;18.310;2023-02-15T08:26:33;12.07;;;7.30;;
12385;SDS011;6257;57.634;18.310;2023-02-15T08:29:00;11.87;;;7.83;;
12385;SDS011;6257;57.634;18.310;2023-02-15T08:31:27;11.50;;;8.07;;
12385;SDS011;6257;57.634;18.310;2023-02-15T08:33:55;11.47;;;7.70;;
12385;SDS011;6257;57.634;18.310;2023-02-15T08:36:25;10.60;;;7.77;;
12385;SDS011;6257;57.634;18.310;2023-02-15T08:38:54;11.90;;;7.80;;
12385;SDS011;6257;57.634;18.310;2023-02-15T08:41:24;10.80;;;7.73;;
12385;SDS011;6257;57.634;18.310;2023-02-15T08:43:54;10.70;;;7.93;;
12385;SDS011;6257;57.634;18.310;2023-02-15T08:46:23;13.37;;;8.07;;
12385;SDS011;6257;57.634;18.310;2023-02-15T08:48:51;11.13;;;7.47;;
12385;SDS011;6257;57.634;18.310;2023-02-15T08:51:20;12.63;;;8.50;;
12385;SDS011;6257;57.634;18.310;2023-02-15T08:53:50;10.90;;;7.77;;
12385;SDS011;6257;57.634;18.310;2023-02-15T08:56:19;12.47;;;7.43;;
12385;SDS011;6257;57.634;18.310;2023-02-15T08:58:48;11.30;;;8.30;;
12385;SDS011;6257;57.634;18.310;2023-02-15T09:01:16;11.23;;;7.17;;
12385;SDS011;6257;57.634;18.310;2023-02-15T09:03:45;11.00;;;7.37;;
12385;SDS011;6257;57.634;18.310;2023-02-15T09:06:13;10.87;;;7.30;;
12385;SDS011;6257;57.634;18.310;2023-02-15T09:08:41;11.37;;;7.40;;
12385;SDS011;6257;57.634;18.310;2023-02-15T09:11:11;13.07;;;7.30;;
12385;SDS011;6257;57.634;18.310;2023-02-15T09:13:41;12.90;;;6.87;;
12385;SDS011;6257;57.634;18.310;2023-02-15T09:16:10;11.53;;;6.63;;
12385;SDS011;6257;57.634;18.310;2023-02-15T09:18:37;10.37;;;6.20;;
12385;SDS011;6257;57.634;18.310;2023-02-15T09:21:06;12.43;;;6.53;;
12385;SDS011;6257;57.634;18.310;2023-02-15T09:23:34;12.10;;;7.53;;
12385;SDS011;6257;57.634;18.310;2023-02-15T09:26:02;10.87;;;7.67;;
12385;SDS011;6257;57.634;18.310;2023-02-15T09:28:32;12.57;;;7.27;;
12385;SDS011;6257;57.634;18.310;2023-02-15T09:31:06;9.43;;;6.97;;
12385;SDS011;6257;57.634;18.310;2023-02-15T09:33:34;12.40;;;7.43;;
12385;SDS011;6257;57.634;18.310;2023-02-15T09:36:02;8.97;;;6.63;;
12385;SDS011;6257;57.634;18.310;2023-02-15T09:38:30;11.57;;;7.23;;
12385;SDS011;6257;57.634;18.310;2023-02-15T09:41:02;14.93;;;7.07;;
12385;SDS011;6257;57.634;18.310;2023-02-15T09:43:40;11.70;;;7.10;;
12385;SDS011;6257;57.634;18.310;2023-02-15T09:46:21;10.33;;;6.37;;
12385;SDS011;6257;57.634;18.310;2023-02-15T09:49:13;11.63;;;6.43;;
12385;SDS011;6257;57.634;18.310;2023-02-15T09:55:07;11.00;;;6.87;;
12385;SDS011;6257;57.634;18.310;2023-02-15T09:57:45;10.07;;;6.40;;
12385;SDS011;6257;57.634;18.310;2023-02-15T10:00:21;8.73;;;6.50;;
12385;SDS011;6257;57.634;18.310;2023-02-15T10:03:03;8.63;;;6.27;;
12385;SDS011;6257;57.634;18.310;2023-02-15T10:05:46;9.87;;;6.10;;
12385;SDS011;6257;57.634;18.310;2023-02-15T10:08:32;9.97;;;6.50;;
12385;SDS011;6257;57.634;18.310;2023-02-15T10:11:14;7.10;;;5.87;;
12385;SDS011;6257;57.634;18.310;2023-02-15T10:14:08;12.03;;;5.97;;
12385;SDS011;6257;57.634;18.310;2023-02-15T10:16:56;9.87;;;6.43;;
12385;SDS011;6257;57.634;18.310;2023-02-15T10:19:35;11.23;;;6.00;;
12385;SDS011;6257;57.634;18.310;2023-02-15T10:22:11;9.57;;;5.83;;
12385;SDS011;6257;57.634;18.310;2023-02-15T10:24:54;6.30;;;4.80;;
12385;SDS011;6257;57.634;18.310;2023-02-15T10:27:38;7.53;;;5.43;;
12385;SDS011;6257;57.634;18.310;2023-02-15T10:30:13;9.47;;;5.60;;
12385;SDS011;6257;57.634;18.310;2023-02-15T10:32:45;8.57;;;5.33;;
12385;SDS011;6257;57.634;18.310;2023-02-15T10:35:20;8.10;;;5.00;;
12385;SDS011;6257;57.634;18.310;2023-02-15T10:38:01;6.87;;;5.40;;
12385;SDS011;6257;57.634;18.310;2023-02-15T10:40:39;6.77;;;5.00;;
12385;SDS011;6257;57.634;18.310;2023-02-15T10:43:19;6.47;;;4.60;;
12385;SDS011;6257;57.634;18.310;2023-02-15T10:46:07;8.40;;;5.60;;
12385;SDS011;6257;57.634;18.310;2023-02-15T10:51:47;8.17;;;5.33;;
12385;SDS011;6257;57.634;18.310;2023-02-15T10:54:25;8.37;;;5.33;;
12385;SDS011;6257;57.634;18.310;2023-02-15T10:57:01;9.37;;;5.93;;
12385;SDS011;6257;57.634;18.310;2023-02-15T11:02:25;8.17;;;5.60;;
12385;SDS011;6257;57.634;18.310;2023-02-15T11:05:02;9.40;;;5.40;;
12385;SDS011;6257;57.634;18.310;2023-02-15T11:07:46;8.03;;;5.10;;
12385;SDS011;6257;57.634;18.310;2023-02-15T11:10:21;8.43;;;5.57;;
12385;SDS011;6257;57.634;18.310;2023-02-15T11:12:53;6.37;;;4.60;;
12385;SDS011;6257;57.634;18.310;2023-02-15T11:15:24;7.73;;;5.10;;
12385;SDS011;6257;57.634;18.310;2023-02-15T11:17:57;6.50;;;4.73;;
12385;SDS011;6257;57.634;18.310;2023-02-15T11:20:29;8.07;;;4.57;;
12385;SDS011;6257;57.634;18.310;2023-02-15T11:22:59;8.40;;;5.13;;
12385;SDS011;6257;57.634;18.310;2023-02-15T11:25:28;10.97;;;5.00;;
12385;SDS011;6257;57.634;18.310;2023-02-15T11:27:57;8.67;;;4.57;;
12385;SDS011;6257;57.634;18.310;2023-02-15T11:30:27;6.80;;;4.40;;
12385;SDS011;6257;57.634;18.310;2023-02-15T11:33:02;10.53;;;5.27;;
12385;SDS011;6257;57.634;18.310;2023-02-15T11:35:33;11.03;;;5.40;;
12385;SDS011;6257;57.634;18.310;2023-02-15T11:38:12;6.40;;;4.60;;
12385;SDS011;6257;57.634;18.310;2023-02-15T11:40:44;9.47;;;4.37;;
12385;SDS011;6257;57.634;18.310;2023-02-15T11:43:16;9.77;;;4.33;;
12385;SDS011;6257;57.634;18.310;2023-02-15T11:45:46;7.80;;;5.10;;
12385;SDS011;6257;57.634;18.310;2023-02-15T11:48:14;6.70;;;4.10;;
12385;SDS011;6257;57.634;18.310;2023-02-15T11:50:43;7.87;;;4.50;;
12385;SDS011;6257;57.634;18.310;2023-02-15T11:53:13;5.50;;;3.73;;
12385;SDS011;6257;57.634;18.310;2023-02-15T11:55:42;7.67;;;4.30;;
12385;SDS011;6257;57.634;18.310;2023-02-15T11:58:14;8.30;;;4.30;;
12385;SDS011;6257;57.634;18.310;2023-02-15T12:00:49;6.00;;;4.40;;
12385;SDS011;6257;57.634;18.310;2023-02-15T12:03:21;7.50;;;4.17;;
12385;SDS011;6257;57.634;18.310;2023-02-15T12:05:55;5.47;;;4.03;;
12385;SDS011;6257;57.634;18.310;2023-02-15T12:08:26;7.00;;;4.17;;
12385;SDS011;6257;57.634;18.310;2023-02-15T12:11:05;5.53;;;3.93;;
12385;SDS011;6257;57.634;18.310;2023-02-15T12:13:37;6.80;;;3.83;;
12385;SDS011;6257;57.634;18.310;2023-02-15T12:16:21;8.97;;;4.23;;
12385;SDS011;6257;57.634;18.310;2023-02-15T12:18:48;6.97;;;4.23;;
12385;SDS011;6257;57.634;18.310;2023-02-15T12:21:23;6.87;;;4.10;;
12385;SDS011;6257;57.634;18.310;2023-02-15T12:23:55;10.67;;;4.57;;
12385;SDS011;6257;57.634;18.310;2023-02-15T12:26:25;6.73;;;4.37;;
12385;SDS011;6257;57.634;18.310;2023-02-15T12:28:53;7.20;;;4.20;;
12385;SDS011;6257;57.634;18.310;2023-02-15T12:31:24;7.93;;;4.30;;
12385;SDS011;6257;57.634;18.310;2023-02-15T12:33:57;5.20;;;4.03;;
12385;SDS011;6257;57.634;18.310;2023-02-15T12:36:29;6.17;;;4.10;;
12385;SDS011;6257;57.634;18.310;2023-02-15T12:39:16;5.87;;;4.00;;
12385;SDS011;6257;57.634;18.310;2023-02-15T12:41:46;6.77;;;4.03;;
12385;SDS011;6257;57.634;18.310;2023-02-15T12:44:24;11.57;;;4.03;;
12385;SDS011;6257;57.634;18.310;2023-02-15T12:46:58;13.17;;;4.37;;
12385;SDS011;6257;57.634;18.310;2023-02-15T12:49:26;10.23;;;4.03;;
12385;SDS011;6257;57.634;18.310;2023-02-15T12:51:55;7.83;;;4.07;;
12385;SDS011;6257;57.634;18.310;2023-02-15T12:54:29;9.90;;;4.20;;
12385;SDS011;6257;57.634;18.310;2023-02-15T12:57:02;11.30;;;5.00;;
12385;SDS011;6257;57.634;18.310;2023-02-15T12:59:47;5.10;;;3.80;;
12385;SDS011;6257;57.634;18.310;2023-02-15T13:02:18;5.77;;;4.17;;
12385;SDS011;6257;57.634;18.310;2023-02-15T13:04:55;8.60;;;4.20;;
12385;SDS011;6257;57.634;18.310;2023-02-15T13:07:23;7.37;;;4.37;;
12385;SDS011;6257;57.634;18.310;2023-02-15T13:09:58;5.63;;;4.30;;
12385;SDS011;6257;57.634;18.310;2023-02-15T13:12:26;6.13;;;4.37;;
12385;SDS011;6257;57.634;18.310;2023-02-15T13:14:56;5.47;;;4.30;;
12385;SDS011;6257;57.634;18.310;2023-02-15T13:17:25;7.23;;;3.93;;
12385;SDS011;6257;57.634;18.310;2023-02-15T13:19:55;6.40;;;3.77;;
12385;SDS011;6257;57.634;18.310;2023-02-15T13:22:26;8.83;;;4.10;;
12385;SDS011;6257;57.634;18.310;2023-02-15T13:25:01;6.67;;;4.03;;
12385;SDS011;6257;57.634;18.310;2023-02-15T13:27:35;5.77;;;3.80;;
12385;SDS011;6257;57.634;18.310;2023-02-15T13:30:10;6.30;;;4.40;;
12385;SDS011;6257;57.634;18.310;2023-02-15T13:32:46;4.97;;;3.83;;
12385;SDS011;6257;57.634;18.310;2023-02-15T13:35:16;7.20;;;3.93;;
12385;SDS011;6257;57.634;18.310;2023-02-15T13:37:51;9.77;;;3.93;;
12385;SDS011;6257;57.634;18.310;2023-02-15T13:40:37;4.87;;;3.30;;
12385;SDS011;6257;57.634;18.310;2023-02-15T13:43:13;6.23;;;3.40;;
12385;SDS011;6257;57.634;18.310;2023-02-15T13:45:52;6.13;;;3.70;;
12385;SDS011;6257;57.634;18.310;2023-02-15T13:48:30;6.23;;;3.40;;
12385;SDS011;6257;57.634;18.310;2023-02-15T13:51:06;5.33;;;3.30;;
12385;SDS011;6257;57.634;18.310;2023-02-15T13:56:35;3.60;;;3.10;;
12385;SDS011;6257;57.634;18.310;2023-02-15T13:59:16;5.17;;;3.50;;
12385;SDS011;6257;57.634;18.310;2023-02-15T14:01:55;4.37;;;3.33;;
12385;SDS011;6257;57.634;18.310;2023-02-15T14:07:33;5.77;;;3.70;;
12385;SDS011;6257;57.634;18.310;2023-02-15T14:10:25;5.23;;;3.70;;
12385;SDS011;6257;57.634;18.310;2023-02-15T14:13:24;5.37;;;4.37;;
12385;SDS011;6257;57.634;18.310;2023-02-15T14:16:20;7.23;;;4.50;;
12385;SDS011;6257;57.634;18.310;2023-02-15T14:18:59;6.40;;;4.17;;
12385;SDS011;6257;57.634;18.310;2023-02-15T14:21:36;8.03;;;4.57;;
12385;SDS011;6257;57.634;18.310;2023-02-15T14:24:14;7.90;;;5.00;;
12385;SDS011;6257;57.634;18.310;2023-02-15T14:26:53;8.00;;;5.30;;
12385;SDS011;6257;57.634;18.310;2023-02-15T14:29:32;6.33;;;4.83;;
12385;SDS011;6257;57.634;18.310;2023-02-15T14:32:10;6.70;;;5.40;;
12385;SDS011;6257;57.634;18.310;2023-02-15T14:34:42;9.20;;;5.73;;
12385;SDS011;6257;57.634;18.310;2023-02-15T14:37:13;6.80;;;4.80;;
12385;SDS011;6257;57.634;18.310;2023-02-15T14:39:47;6.53;;;5.30;;
12385;SDS011;6257;57.634;18.310;2023-02-15T14:42:40;8.37;;;5.60;;
12385;SDS011;6257;57.634;18.310;2023-02-15T14:45:17;10.17;;;6.43;;
12385;SDS011;6257;57.634;18.310;2023-02-15T14:47:48;9.70;;;6.43;;
12385;SDS011;6257;57.634;18.310;2023-02-15T14:50:41;8.73;;;5.93;;
12385;SDS011;6257;57.634;18.310;2023-02-15T14:53:25;9.07;;;6.43;;
12385;SDS011;6257;57.634;18.310;2023-02-15T15:01:56;9.20;;;6.30;;
12385;SDS011;6257;57.634;18.310;2023-02-15T15:04:26;8.37;;;5.90;;
12385;SDS011;6257;57.634;18.310;2023-02-15T15:06:59;9.97;;;6.70;;
12385;SDS011;6257;57.634;18.310;2023-02-15T15:09:32;9.67;;;6.10;;
12385;SDS011;6257;57.634;18.310;2023-02-15T15:15:02;8.77;;;6.13;;
12385;SDS011;6257;57.634;18.310;2023-02-15T15:20:41;10.17;;;6.63;;
12385;SDS011;6257;57.634;18.310;2023-02-15T15:29:02;10.87;;;6.83;;
12385;SDS011;6257;57.634;18.310;2023-02-15T15:31:37;10.90;;;6.87;;
12385;SDS011;6257;57.634;18.310;2023-02-15T15:43:54;10.50;;;6.63;;
12385;SDS011;6257;57.634;18.310;2023-02-15T15:47:00;10.07;;;6.27;;
12385;SDS011;6257;57.634;18.310;2023-02-15T15:49:40;12.87;;;8.00;;
12385;SDS011;6257;57.634;18.310;2023-02-15T15:52:12;10.37;;;7.27;;
12385;SDS011;6257;57.634;18.310;2023-02-15T15:54:41;12.63;;;6.87;;
12385;SDS011;6257;57.634;18.310;2023-02-15T15:57:12;11.03;;;7.73;;
12385;SDS011;6257;57.634;18.310;2023-02-15T15:59:45;12.63;;;8.23;;
12385;SDS011;6257;57.634;18.310;2023-02-15T16:02:13;9.07;;;6.73;;